sensor_id;sensor_type;location;lat;lon;timestamp;pressure;altitude;pressure_sealevel;temperature;humidity
22862;BME280;11598;50.652;6.172;2023-06-22T00:07:39;96762.69;;;18.31;76.81
22862;BME280;11598;50.652;6.172;2023-06-22T00:17:39;96760.31;;;18.20;77.40
22862;BME280;11598;50.652;6.172;2023-06-22T00:27:40;96754.22;;;18.20;77.09
22862;BME280;11598;50.652;6.172;2023-06-22T00:37:40;96752.75;;;18.17;77.16
22862;BME280;11598;50.652;6.172;2023-06-22T00:47:42;96739.91;;;18.14;76.59
22862;BME280;11598;50.652;6.172;2023-06-22T00:57:46;96736.06;;;18.08;76.54
22862;BME280;11598;50.652;6.172;2023-06-22T01:07:53;96720.94;;;18.02;76.49
22862;BME280;11598;50.652;6.172;2023-06-22T01:17:57;96714.66;;;17.95;77.10
22862;BME280;11598;50.652;6.172;2023-06-22T01:28:23;96707.91;;;17.92;76.64
22862;BME280;11598;50.652;6.172;2023-06-22T01:38:24;96693.53;;;17.87;77.00
22862;BME280;11598;50.652;6.172;2023-06-22T01:48:25;96681.53;;;17.84;76.69
22862;BME280;11598;50.652;6.172;2023-06-22T01:58:27;96682.56;;;17.91;75.33
22862;BME280;11598;50.652;6.172;2023-06-22T02:08:49;96691.94;;;17.94;75.44
22862;BME280;11598;50.652;6.172;2023-06-22T02:18:51;96688.84;;;17.99;75.72
22862;BME280;11598;50.652;6.172;2023-06-22T02:28:52;96671.44;;;17.98;75.97
22862;BME280;11598;50.652;6.172;2023-06-22T02:38:53;96655.78;;;17.88;77.15
22862;BME280;11598;50.652;6.172;2023-06-22T02:48:54;96637.53;;;17.68;79.17
22862;BME280;11598;50.652;6.172;2023-06-22T02:58:54;96611.00;;;17.53;80.26
22862;BME280;11598;50.652;6.172;2023-06-22T03:09:02;96602.00;;;17.56;80.87
22862;BME280;11598;50.652;6.172;2023-06-22T03:19:04;96589.75;;;17.21;83.62
22862;BME280;11598;50.652;6.172;2023-06-22T03:29:04;96593.16;;;16.95;86.09
22862;BME280;11598;50.652;6.172;2023-06-22T03:39:04;96586.78;;;16.98;88.02
22862;BME280;11598;50.652;6.172;2023-06-22T03:49:05;96603.19;;;17.00;89.33
22862;BME280;11598;50.652;6.172;2023-06-22T03:59:05;96605.69;;;17.01;90.33
22862;BME280;11598;50.652;6.172;2023-06-22T04:09:06;96619.50;;;17.03;90.60
22862;BME280;11598;50.652;6.172;2023-06-22T04:19:06;96607.56;;;17.09;90.11
22862;BME280;11598;50.652;6.172;2023-06-22T04:29:07;96603.78;;;17.29;88.93
22862;BME280;11598;50.652;6.172;2023-06-22T04:39:10;96617.03;;;17.46;88.40
22862;BME280;11598;50.652;6.172;2023-06-22T04:49:11;96608.47;;;17.62;88.56
22862;BME280;11598;50.652;6.172;2023-06-22T04:59:11;96596.25;;;17.79;88.86
22862;BME280;11598;50.652;6.172;2023-06-22T05:09:13;96607.16;;;17.92;88.30
22862;BME280;11598;50.652;6.172;2023-06-22T05:19:13;96603.69;;;17.83;86.69
22862;BME280;11598;50.652;6.172;2023-06-22T05:29:13;96614.53;;;18.14;85.65
22862;BME280;11598;50.652;6.172;2023-06-22T05:39:14;96602.78;;;18.35;85.67
22862;BME280;11598;50.652;6.172;2023-06-22T05:49:15;96616.31;;;18.56;85.50
22862;BME280;11598;50.652;6.172;2023-06-22T05:59:16;96631.00;;;18.67;85.51
22862;BME280;11598;50.652;6.172;2023-06-22T06:09:17;96632.47;;;18.70;86.56
22862;BME280;11598;50.652;6.172;2023-06-22T06:19:17;96628.59;;;18.82;86.88
22862;BME280;11598;50.652;6.172;2023-06-22T06:29:18;96611.53;;;19.03;86.01
22862;BME280;11598;50.652;6.172;2023-06-22T06:39:19;96614.13;;;19.19;86.20
22862;BME280;11598;50.652;6.172;2023-06-22T06:49:20;96588.97;;;19.41;86.08
22862;BME280;11598;50.652;6.172;2023-06-22T06:59:20;96569.84;;;20.59;83.08
22862;BME280;11598;50.652;6.172;2023-06-22T07:09:21;96559.19;;;21.36;79.07
22862;BME280;11598;50.652;6.172;2023-06-22T07:19:25;96539.47;;;22.21;75.57
22862;BME280;11598;50.652;6.172;2023-06-22T07:29:26;96520.00;;;23.08;72.76
22862;BME280;11598;50.652;6.172;2023-06-22T07:39:27;96514.34;;;23.39;70.63
22862;BME280;11598;50.652;6.172;2023-06-22T07:49:28;96500.41;;;23.66;69.51
22862;BME280;11598;50.652;6.172;2023-06-22T07:59:29;96459.03;;;24.13;68.04
22862;BME280;11598;50.652;6.172;2023-06-22T08:09:31;96492.31;;;23.39;68.70
22862;BME280;11598;50.652;6.172;2023-06-22T08:19:31;96475.94;;;23.29;68.85
22862;BME280;11598;50.652;6.172;2023-06-22T08:29:32;96478.47;;;24.26;66.06
22862;BME280;11598;50.652;6.172;2023-06-22T08:39:32;96459.59;;;25.36;63.74
22862;BME280;11598;50.652;6.172;2023-06-22T08:49:33;96451.84;;;25.08;63.25
22862;BME280;11598;50.652;6.172;2023-06-22T08:59:33;96456.72;;;24.71;64.10
22862;BME280;11598;50.652;6.172;2023-06-22T09:23:08;96436.09;;;23.85;66.09
22862;BME280;11598;50.652;6.172;2023-06-22T09:33:08;96494.81;;;22.97;69.03
22862;BME280;11598;50.652;6.172;2023-06-22T09:43:08;96568.19;;;22.09;77.68
22862;BME280;11598;50.652;6.172;2023-06-22T09:53:09;96553.50;;;20.86;87.06
22862;BME280;11598;50.652;6.172;2023-06-22T10:03:09;96557.53;;;20.03;93.94
22862;BME280;11598;50.652;6.172;2023-06-22T10:13:10;96565.88;;;19.51;99.21
22862;BME280;11598;50.652;6.172;2023-06-22T10:23:11;96527.41;;;19.09;100.00
22862;BME280;11598;50.652;6.172;2023-06-22T10:33:12;96496.16;;;18.90;100.00
22862;BME280;11598;50.652;6.172;2023-06-22T10:43:12;96469.66;;;18.91;100.00
22862;BME280;11598;50.652;6.172;2023-06-22T10:53:13;96431.69;;;19.41;100.00
22862;BME280;11598;50.652;6.172;2023-06-22T11:03:13;96392.97;;;19.50;100.00
22862;BME280;11598;50.652;6.172;2023-06-22T11:13:14;96387.38;;;19.84;100.00
22862;BME280;11598;50.652;6.172;2023-06-22T11:23:14;96367.41;;;19.90;100.00
22862;BME280;11598;50.652;6.172;2023-06-22T11:33:15;96358.63;;;19.98;100.00
22862;BME280;11598;50.652;6.172;2023-06-22T11:43:15;96353.94;;;20.08;100.00
22862;BME280;11598;50.652;6.172;2023-06-22T11:53:15;96331.34;;;20.28;100.00
22862;BME280;11598;50.652;6.172;2023-06-22T12:03:18;96320.91;;;20.73;100.00
22862;BME280;11598;50.652;6.172;2023-06-22T12:13:18;96316.63;;;20.87;100.00
22862;BME280;11598;50.652;6.172;2023-06-22T12:23:19;96278.47;;;21.04;100.00
22862;BME280;11598;50.652;6.172;2023-06-22T12:33:19;96264.16;;;21.14;100.00
22862;BME280;11598;50.652;6.172;2023-06-22T12:43:20;96253.94;;;21.40;100.00
22862;BME280;11598;50.652;6.172;2023-06-22T12:53:20;96258.84;;;21.28;100.00
22862;BME280;11598;50.652;6.172;2023-06-22T13:03:22;96244.31;;;21.03;100.00
22862;BME280;11598;50.652;6.172;2023-06-22T13:13:25;96224.44;;;21.07;100.00
22862;BME280;11598;50.652;6.172;2023-06-22T13:23:27;96194.09;;;20.81;100.00
22862;BME280;11598;50.652;6.172;2023-06-22T13:33:27;96176.78;;;20.94;100.00
22862;BME280;11598;50.652;6.172;2023-06-22T13:43:27;96154.88;;;20.63;100.00
22862;BME280;11598;50.652;6.172;2023-06-22T13:53:28;96119.94;;;20.32;100.00
22862;BME280;11598;50.652;6.172;2023-06-22T14:03:28;96042.00;;;20.14;100.00
22862;BME280;11598;50.652;6.172;2023-06-22T14:13:28;96072.28;;;20.03;100.00
22862;BME280;11598;50.652;6.172;2023-06-22T14:23:29;96038.28;;;19.94;100.00
22862;BME280;11598;50.652;6.172;2023-06-22T14:33:29;96004.41;;;19.76;100.00
22862;BME280;11598;50.652;6.172;2023-06-22T14:43:29;95972.91;;;19.15;100.00
22862;BME280;11598;50.652;6.172;2023-06-22T14:53:30;96048.28;;;18.93;100.00
22862;BME280;11598;50.652;6.172;2023-06-22T15:03:31;96001.63;;;18.87;100.00
22862;BME280;11598;50.652;6.172;2023-06-22T15:13:32;96067.59;;;18.54;100.00
22862;BME280;11598;50.652;6.172;2023-06-22T15:23:34;96043.91;;;17.75;100.00
22862;BME280;11598;50.652;6.172;2023-06-22T15:33:35;96053.34;;;17.53;100.00
22862;BME280;11598;50.652;6.172;2023-06-22T15:43:37;96037.56;;;17.53;100.00
22862;BME280;11598;50.652;6.172;2023-06-22T15:53:37;96040.63;;;17.73;100.00
22862;BME280;11598;50.652;6.172;2023-06-22T16:03:37;96024.88;;;18.21;100.00
22862;BME280;11598;50.652;6.172;2023-06-22T16:13:38;96043.66;;;18.41;100.00
22862;BME280;11598;50.652;6.172;2023-06-22T16:23:39;96046.09;;;18.19;100.00
22862;BME280;11598;50.652;6.172;2023-06-22T16:33:39;96040.97;;;17.86;100.00
22862;BME280;11598;50.652;6.172;2023-06-22T16:43:43;96006.38;;;17.58;100.00
22862;BME280;11598;50.652;6.172;2023-06-22T16:53:44;96021.19;;;17.43;100.00
22862;BME280;11598;50.652;6.172;2023-06-22T17:03:53;96025.50;;;17.19;100.00
22862;BME280;11598;50.652;6.172;2023-06-22T17:13:57;96025.50;;;17.11;100.00
22862;BME280;11598;50.652;6.172;2023-06-22T17:24:00;96025.66;;;16.93;100.00
22862;BME280;11598;50.652;6.172;2023-06-22T17:34:06;96059.91;;;16.75;100.00
22862;BME280;11598;50.652;6.172;2023-06-22T17:44:07;96089.38;;;16.61;100.00
22862;BME280;11598;50.652;6.172;2023-06-22T17:54:08;96105.16;;;16.18;100.00
22862;BME280;11598;50.652;6.172;2023-06-22T18:04:13;96149.56;;;15.94;100.00
22862;BME280;11598;50.652;6.172;2023-06-22T18:14:16;96186.13;;;15.77;100.00
22862;BME280;11598;50.652;6.172;2023-06-22T18:24:18;96217.13;;;15.64;100.00
22862;BME280;11598;50.652;6.172;2023-06-22T18:34:19;96236.19;;;15.56;100.00
22862;BME280;11598;50.652;6.172;2023-06-22T18:44:27;96276.22;;;15.49;100.00
22862;BME280;11598;50.652;6.172;2023-06-22T18:54:35;96295.72;;;15.36;100.00
22862;BME280;11598;50.652;6.172;2023-06-22T19:04:35;96337.31;;;15.12;100.00
22862;BME280;11598;50.652;6.172;2023-06-22T19:14:36;96359.78;;;14.77;100.00
22862;BME280;11598;50.652;6.172;2023-06-22T19:24:49;96388.31;;;14.61;100.00
22862;BME280;11598;50.652;6.172;2023-06-22T19:34:50;96397.66;;;14.53;100.00
22862;BME280;11598;50.652;6.172;2023-06-22T19:44:51;96407.41;;;14.51;100.00
22862;BME280;11598;50.652;6.172;2023-06-22T19:54:51;96432.06;;;14.49;100.00
22862;BME280;11598;50.652;6.172;2023-06-22T20:04:51;96442.09;;;14.53;100.00
22862;BME280;11598;50.652;6.172;2023-06-22T20:14:52;96456.53;;;14.67;100.00
22862;BME280;11598;50.652;6.172;2023-06-22T20:24:53;96467.53;;;14.80;100.00
22862;BME280;11598;50.652;6.172;2023-06-22T20:34:54;96447.66;;;14.97;100.00
22862;BME280;11598;50.652;6.172;2023-06-22T20:44:54;96450.94;;;15.09;100.00
22862;BME280;11598;50.652;6.172;2023-06-22T20:54:55;96471.31;;;15.15;100.00
22862;BME280;11598;50.652;6.172;2023-06-22T21:04:55;96474.03;;;15.23;100.00
22862;BME280;11598;50.652;6.172;2023-06-22T21:14:56;96498.44;;;15.24;100.00
22862;BME280;11598;50.652;6.172;2023-06-22T21:25:07;96544.69;;;15.23;100.00
22862;BME280;11598;50.652;6.172;2023-06-22T21:35:08;96571.44;;;15.17;100.00
22862;BME280;11598;50.652;6.172;2023-06-22T21:45:12;96578.63;;;15.06;100.00
22862;BME280;11598;50.652;6.172;2023-06-22T21:55:12;96596.94;;;14.96;100.00
22862;BME280;11598;50.652;6.172;2023-06-22T22:05:13;96593.78;;;14.92;100.00
22862;BME280;11598;50.652;6.172;2023-06-22T22:15:13;96594.47;;;14.85;100.00
22862;BME280;11598;50.652;6.172;2023-06-22T22:25:13;96593.50;;;14.86;100.00
22862;BME280;11598;50.652;6.172;2023-06-22T22:35:14;96595.69;;;14.90;100.00
22862;BME280;11598;50.652;6.172;2023-06-22T22:45:14;96609.34;;;14.94;100.00
22862;BME280;11598;50.652;6.172;2023-06-22T22:55:16;96604.34;;;14.91;100.00
22862;BME280;11598;50.652;6.172;2023-06-22T23:05:17;96606.44;;;14.87;100.00
22862;BME280;11598;50.652;6.172;2023-06-22T23:15:18;96623.09;;;14.86;100.00
22862;BME280;11598;50.652;6.172;2023-06-22T23:25:19;96645.16;;;14.93;100.00
22862;BME280;11598;50.652;6.172;2023-06-22T23:35:19;96676.38;;;14.95;100.00
22862;BME280;11598;50.652;6.172;2023-06-22T23:45:20;96732.28;;;14.94;100.00
22862;BME280;11598;50.652;6.172;2023-06-22T23:55:20;96714.94;;;14.93;100.00
